Time;durP1;ratioP1;P1;durP2;ratioP2;P2;SDS_P1;SDS_P2;PMS_P1;PMS_P2;Temp;Humidity;BMP_temperature;BMP_pressure;BME280_temperature;BME280_humidity;BME280_pressure;Samples;Min_cycle;Max_cycle;Signal;HPM_P1;HPM_P2
2023/07/28 00:01:14;;;;;;;18.33;7.50;;;;;;;;;;5028891;28;20073;-70
2023/07/28 00:03:40;;;;;;;24.95;8.95;;;;;;;;;;5023118;28;20072;-69
2023/07/28 00:06:06;;;;;;;21.85;7.85;;;;;;;;;;5022945;28;20453;-69
2023/07/28 00:08:32;;;;;;;17.20;7.72;;;;;;;;;;5028877;28;20033;-68
2023/07/28 00:10:59;;;;;;;19.08;8.10;;;;;;;;;;5027771;28;20032;-68
2023/07/28 00:13:25;;;;;;;24.08;8.48;;;;;;;;;;5027090;28;20048;-69
2023/07/28 00:15:51;;;;;;;19.70;8.45;;;;;;;;;;5026595;28;20251;-68
2023/07/28 00:18:18;;;;;;;22.95;9.05;;;;;;;;;;5028875;28;20120;-68
2023/07/28 00:20:44;;;;;;;20.65;9.10;;;;;;;;;;5024519;28;20044;-68
2023/07/28 00:23:10;;;;;;;23.25;10.10;;;;;;;;;;5024470;28;20045;-68
2023/07/28 00:25:36;;;;;;;23.92;10.65;;;;;;;;;;5028715;28;20180;-68
2023/07/28 00:28:03;;;;;;;27.63;10.65;;;;;;;;;;5028837;28;21144;-68
2023/07/28 00:30:31;;;;;;;22.60;10.75;;;;;;;;;;5026229;28;20409;-68
2023/07/28 00:32:57;;;;;;;25.35;11.50;;;;;;;;;;5028129;28;20043;-69
2023/07/28 00:35:23;;;;;;;26.63;12.05;;;;;;;;;;5025964;28;20117;-67
2023/07/28 00:37:49;;;;;;;33.92;13.07;;;;;;;;;;5010673;28;20049;-68
2023/07/28 00:40:15;;;;;;;32.45;12.90;;;;;;;;;;5027851;28;20108;-68
2023/07/28 00:42:41;;;;;;;26.83;11.65;;;;;;;;;;5027725;28;20052;-68
2023/07/28 00:45:08;;;;;;;32.53;13.88;;;;;;;;;;5009537;28;20046;-68
2023/07/28 00:47:35;;;;;;;34.50;13.45;;;;;;;;;;5008154;28;20029;-68
2023/07/28 00:50:01;;;;;;;30.15;13.05;;;;;;;;;;5027833;28;20033;-68
2023/07/28 00:52:27;;;;;;;34.50;13.63;;;;;;;;;;5010118;28;20061;-68
2023/07/28 00:54:53;;;;;;;34.05;13.45;;;;;;;;;;5024666;28;20402;-68
2023/07/28 00:57:19;;;;;;;35.88;14.38;;;;;;;;;;5025736;28;20040;-68
2023/07/28 00:59:46;;;;;;;39.30;15.05;;;;;;;;;;5006188;28;20029;-71
2023/07/28 01:02:12;;;;;;;38.00;14.55;;;;;;;;;;5025666;28;20175;-69
2023/07/28 01:04:38;;;;;;;32.80;14.55;;;;;;;;;;5026936;28;20105;-68
2023/07/28 01:07:09;;;;;;;39.17;15.43;;;;;;;;;;5025888;28;20086;-68
2023/07/28 01:09:53;;;;;;;48.80;15.57;;;;;;;;;;5025998;28;20022;-68
2023/07/28 01:12:19;;;;;;;43.85;16.55;;;;;;;;;;5025866;28;20053;-67
2023/07/28 01:14:45;;;;;;;36.47;16.95;;;;;;;;;;5026684;28;20040;-68
2023/07/28 01:17:11;;;;;;;36.45;16.10;;;;;;;;;;5009270;28;20032;-68
2023/07/28 01:19:37;;;;;;;46.55;16.33;;;;;;;;;;5028904;28;20367;-68
2023/07/28 01:22:19;;;;;;;37.50;16.17;;;;;;;;;;5010515;28;20064;-69
2023/07/28 01:24:56;;;;;;;38.55;16.65;;;;;;;;;;5026004;28;20041;-68
2023/07/28 01:27:22;;;;;;;43.83;16.80;;;;;;;;;;5023536;28;20056;-69
2023/07/28 01:29:49;;;;;;;42.92;18.35;;;;;;;;;;5009567;28;20033;-69
2023/07/28 01:32:15;;;;;;;47.20;20.23;;;;;;;;;;5008820;28;20026;-69
2023/07/28 01:34:41;;;;;;;42.13;17.83;;;;;;;;;;5007351;28;20033;-68
2023/07/28 01:37:07;;;;;;;43.90;20.00;;;;;;;;;;5024123;28;20532;-69
2023/07/28 01:39:34;;;;;;;47.45;21.25;;;;;;;;;;5027560;28;20069;-68
2023/07/28 01:42:00;;;;;;;42.25;19.10;;;;;;;;;;5026254;28;20041;-68
2023/07/28 01:44:26;;;;;;;45.35;20.08;;;;;;;;;;5004204;28;20070;-70
2023/07/28 01:46:52;;;;;;;46.45;20.90;;;;;;;;;;5007427;28;20029;-69
2023/07/28 01:49:18;;;;;;;43.20;21.08;;;;;;;;;;5003596;28;20129;-69
2023/07/28 01:51:45;;;;;;;43.05;20.30;;;;;;;;;;5004952;28;20080;-68
2023/07/28 01:54:11;;;;;;;51.92;22.95;;;;;;;;;;5000137;28;20038;-69
2023/07/28 01:56:37;;;;;;;48.70;20.42;;;;;;;;;;5004928;28;20113;-68
2023/07/28 01:59:03;;;;;;;53.88;21.48;;;;;;;;;;5006040;28;20033;-69
2023/07/28 02:01:29;;;;;;;50.13;22.42;;;;;;;;;;5004037;28;20042;-71
2023/07/28 02:03:56;;;;;;;51.85;23.52;;;;;;;;;;4987187;28;20030;-71
2023/07/28 02:06:22;;;;;;;52.75;22.27;;;;;;;;;;5002957;28;20061;-69
2023/07/28 02:08:48;;;;;;;62.00;24.58;;;;;;;;;;5004248;28;20042;-67
2023/07/28 02:11:14;;;;;;;69.30;24.70;;;;;;;;;;5002734;28;20726;-68
2023/07/28 02:13:40;;;;;;;65.13;24.40;;;;;;;;;;5005446;28;20084;-68
2023/07/28 02:16:13;;;;;;;60.70;24.65;;;;;;;;;;5019233;28;20022;-68
2023/07/28 02:18:39;;;;;;;65.75;25.13;;;;;;;;;;5004074;28;20073;-69
2023/07/28 02:21:08;;;;;;;55.40;25.30;;;;;;;;;;5004502;28;20116;-69
2023/07/28 02:23:34;;;;;;;58.60;26.10;;;;;;;;;;5020568;28;20065;-69
2023/07/28 02:26:00;;;;;;;69.10;27.92;;;;;;;;;;5000017;28;20041;-69
2023/07/28 02:28:27;;;;;;;69.50;28.17;;;;;;;;;;5003894;28;20104;-69
2023/07/28 02:30:54;;;;;;;65.05;27.63;;;;;;;;;;4999118;28;20488;-68
2023/07/28 02:33:20;;;;;;;60.03;27.23;;;;;;;;;;5005150;28;20038;-68
2023/07/28 02:35:46;;;;;;;59.88;26.45;;;;;;;;;;5000677;28;20026;-69
2023/07/28 02:38:12;;;;;;;63.17;28.02;;;;;;;;;;5003810;28;20030;-69
2023/07/28 02:40:38;;;;;;;63.78;27.75;;;;;;;;;;5003054;28;20117;-68
2023/07/28 02:43:04;;;;;;;70.43;27.48;;;;;;;;;;5004028;28;20029;-69
2023/07/28 02:45:31;;;;;;;63.35;27.17;;;;;;;;;;5002010;28;20096;-68
2023/07/28 02:47:57;;;;;;;67.60;28.80;;;;;;;;;;5003771;28;20026;-68
2023/07/28 02:50:23;;;;;;;67.70;29.48;;;;;;;;;;5000826;28;20041;-68
2023/07/28 02:53:08;;;;;;;73.70;30.98;;;;;;;;;;5020867;28;20037;-70
2023/07/28 02:55:40;;;;;;;64.68;28.42;;;;;;;;;;4998176;28;20479;-69
2023/07/28 02:58:07;;;;;;;74.82;29.95;;;;;;;;;;4988414;28;20030;-69
2023/07/28 03:00:33;;;;;;;60.90;29.20;;;;;;;;;;5004421;28;20979;-69
2023/07/28 03:02:59;;;;;;;66.53;29.27;;;;;;;;;;4987434;28;20392;-69
2023/07/28 03:05:25;;;;;;;59.85;29.35;;;;;;;;;;4999191;28;20128;-69
2023/07/28 03:08:11;;;;;;;67.70;28.08;;;;;;;;;;5003506;28;20056;-69
2023/07/28 03:10:37;;;;;;;69.70;28.05;;;;;;;;;;5001945;28;20055;-68
2023/07/28 03:13:03;;;;;;;66.47;27.90;;;;;;;;;;5001190;28;21290;-68
2023/07/28 03:15:29;;;;;;;60.55;29.02;;;;;;;;;;4994003;28;20030;-68
2023/07/28 03:17:55;;;;;;;65.40;28.13;;;;;;;;;;5021365;28;20068;-69
2023/07/28 03:20:21;;;;;;;72.53;28.58;;;;;;;;;;5001894;28;20041;-69
2023/07/28 03:22:47;;;;;;;71.07;28.98;;;;;;;;;;5003648;28;20130;-68
2023/07/28 03:25:13;;;;;;;65.22;28.75;;;;;;;;;;5001865;28;20531;-68
2023/07/28 03:27:40;;;;;;;65.70;27.35;;;;;;;;;;5005100;28;20034;-68
2023/07/28 03:30:09;;;;;;;64.32;27.90;;;;;;;;;;4999569;28;20349;-68
2023/07/28 03:32:35;;;;;;;65.20;29.73;;;;;;;;;;5003053;28;20113;-70
2023/07/28 03:35:01;;;;;;;77.47;27.88;;;;;;;;;;5003577;28;20073;-69
2023/07/28 03:37:29;;;;;;;71.35;29.02;;;;;;;;;;5014808;28;20503;-69
2023/07/28 03:39:55;;;;;;;69.90;29.30;;;;;;;;;;5003511;28;20388;-69
2023/07/28 03:42:28;;;;;;;66.57;28.13;;;;;;;;;;5015964;28;20054;-69
2023/07/28 03:44:54;;;;;;;73.68;27.83;;;;;;;;;;5013758;28;20045;-69
2023/07/28 03:47:20;;;;;;;81.18;28.73;;;;;;;;;;5004099;28;20025;-69
2023/07/28 03:49:46;;;;;;;65.97;27.30;;;;;;;;;;5008359;28;20049;-68
2023/07/28 03:52:13;;;;;;;74.78;30.48;;;;;;;;;;5023569;28;20113;-68
2023/07/28 03:54:39;;;;;;;78.90;28.58;;;;;;;;;;4989771;28;20116;-69
2023/07/28 03:57:05;;;;;;;74.53;29.25;;;;;;;;;;5023659;28;21181;-68
2023/07/28 03:59:31;;;;;;;71.78;28.70;;;;;;;;;;5025043;28;20136;-68
2023/07/28 04:01:58;;;;;;;85.85;29.85;;;;;;;;;;5022628;28;20029;-69
2023/07/28 04:04:24;;;;;;;72.22;29.30;;;;;;;;;;5021533;28;20108;-68
2023/07/28 04:06:50;;;;;;;83.60;30.85;;;;;;;;;;5023078;28;20052;-68
2023/07/28 04:09:17;;;;;;;78.03;30.13;;;;;;;;;;5024968;28;20061;-68
2023/07/28 04:11:44;;;;;;;71.03;29.73;;;;;;;;;;5019693;28;20126;-68
2023/07/28 04:14:10;;;;;;;77.07;30.67;;;;;;;;;;5004553;28;20487;-68
2023/07/28 04:16:36;;;;;;;85.80;31.05;;;;;;;;;;5020663;28;20047;-68
2023/07/28 04:19:02;;;;;;;81.95;32.03;;;;;;;;;;5021167;28;20426;-68
2023/07/28 04:21:28;;;;;;;72.18;29.83;;;;;;;;;;5016605;28;20057;-69
2023/07/28 04:23:55;;;;;;;81.32;31.20;;;;;;;;;;5004711;28;20020;-68
2023/07/28 04:26:22;;;;;;;72.22;31.77;;;;;;;;;;4999234;28;20057;-68
2023/07/28 04:28:54;;;;;;;78.32;32.85;;;;;;;;;;5000906;28;20018;-68
2023/07/28 04:31:20;;;;;;;78.55;32.17;;;;;;;;;;5004657;28;20040;-68
2023/07/28 04:33:55;;;;;;;89.93;32.67;;;;;;;;;;5006407;28;20029;-69
2023/07/28 04:36:22;;;;;;;88.53;33.15;;;;;;;;;;5018763;28;20030;-69
2023/07/28 04:38:48;;;;;;;81.20;33.13;;;;;;;;;;5010036;28;20365;-69
2023/07/28 04:41:15;;;;;;;80.53;31.45;;;;;;;;;;5003355;28;20030;-69
2023/07/28 04:44:01;;;;;;;82.68;30.65;;;;;;;;;;5026157;28;20043;-68
2023/07/28 04:46:31;;;;;;;96.38;32.92;;;;;;;;;;5008817;28;20509;-69
2023/07/28 04:48:58;;;;;;;101.22;33.58;;;;;;;;;;5022095;28;20038;-69
2023/07/28 04:51:42;;;;;;;89.10;33.83;;;;;;;;;;5023526;28;20040;-69
2023/07/28 04:54:17;;;;;;;81.10;30.92;;;;;;;;;;5027697;28;20046;-69
2023/07/28 04:56:43;;;;;;;83.43;31.90;;;;;;;;;;5007872;28;20036;-69
2023/07/28 04:59:09;;;;;;;82.13;31.27;;;;;;;;;;5004443;28;20041;-70
2023/07/28 05:01:36;;;;;;;86.68;32.78;;;;;;;;;;5008257;28;20022;-69
2023/07/28 05:04:02;;;;;;;85.90;33.88;;;;;;;;;;5025029;28;20036;-68
2023/07/28 05:06:29;;;;;;;75.72;30.63;;;;;;;;;;5008713;28;20037;-68
2023/07/28 05:08:55;;;;;;;82.05;31.13;;;;;;;;;;5009317;28;20034;-70
2023/07/28 05:11:28;;;;;;;79.53;31.20;;;;;;;;;;5008853;28;20034;-68
2023/07/28 05:13:54;;;;;;;84.97;30.77;;;;;;;;;;5009888;28;20038;-69
2023/07/28 05:16:20;;;;;;;73.55;30.17;;;;;;;;;;5025339;28;20038;-68
2023/07/28 05:19:16;;;;;;;77.22;29.95;;;;;;;;;;5012232;28;20065;-68
2023/07/28 05:21:51;;;;;;;69.80;29.77;;;;;;;;;;5025045;28;20073;-69
2023/07/28 05:24:20;;;;;;;79.20;29.65;;;;;;;;;;5007513;28;20068;-68
2023/07/28 05:26:46;;;;;;;72.93;30.17;;;;;;;;;;4997051;28;20252;-69
2023/07/28 05:29:13;;;;;;;71.55;30.60;;;;;;;;;;5024298;28;20116;-69
2023/07/28 05:31:40;;;;;;;73.55;29.42;;;;;;;;;;5021752;28;20042;-68
2023/07/28 05:34:16;;;;;;;69.45;28.90;;;;;;;;;;5010854;28;20175;-68
2023/07/28 05:36:42;;;;;;;64.82;28.58;;;;;;;;;;5024240;28;20129;-68
2023/07/28 05:39:08;;;;;;;70.18;29.02;;;;;;;;;;5022626;28;20072;-68
2023/07/28 05:41:39;;;;;;;71.18;29.02;;;;;;;;;;5006518;28;20029;-69
2023/07/28 05:44:08;;;;;;;64.25;27.92;;;;;;;;;;4980412;28;20065;-68
2023/07/28 05:46:35;;;;;;;74.45;28.60;;;;;;;;;;5007262;28;20092;-68
2023/07/28 05:49:01;;;;;;;67.95;28.05;;;;;;;;;;5026126;28;20037;-69
2023/07/28 05:51:27;;;;;;;65.65;28.52;;;;;;;;;;5024755;28;20056;-69
2023/07/28 05:53:54;;;;;;;72.68;29.33;;;;;;;;;;5026023;28;21820;-69
2023/07/28 05:56:20;;;;;;;70.60;28.45;;;;;;;;;;5024477;28;20052;-68
2023/07/28 05:58:47;;;;;;;65.28;28.85;;;;;;;;;;5009959;28;20029;-69
2023/07/28 06:01:14;;;;;;;71.22;27.73;;;;;;;;;;5007989;28;20068;-69
2023/07/28 06:03:59;;;;;;;58.55;27.02;;;;;;;;;;5027297;28;20089;-69
2023/07/28 06:06:27;;;;;;;71.70;28.58;;;;;;;;;;5007057;28;20033;-70
2023/07/28 06:08:54;;;;;;;67.63;28.33;;;;;;;;;;5023662;28;20479;-68
2023/07/28 06:11:21;;;;;;;57.90;28.33;;;;;;;;;;5022473;28;20401;-69
2023/07/28 06:13:47;;;;;;;60.90;28.25;;;;;;;;;;5023841;28;20025;-69
2023/07/28 06:16:15;;;;;;;71.60;28.33;;;;;;;;;;5021958;28;20026;-68
2023/07/28 06:18:41;;;;;;;63.47;26.42;;;;;;;;;;5009342;28;20559;-68
2023/07/28 06:21:12;;;;;;;59.15;27.33;;;;;;;;;;5006701;28;20037;-69
2023/07/28 06:23:38;;;;;;;63.08;27.15;;;;;;;;;;5015601;28;20038;-69
2023/07/28 06:26:04;;;;;;;66.13;27.23;;;;;;;;;;5002306;28;20130;-68
2023/07/28 06:28:31;;;;;;;52.22;25.67;;;;;;;;;;5000613;28;20034;-68
2023/07/28 06:30:58;;;;;;;61.47;27.65;;;;;;;;;;5020590;28;20079;-69
2023/07/28 06:33:26;;;;;;;65.95;27.67;;;;;;;;;;4994653;28;20171;-69
2023/07/28 06:35:52;;;;;;;61.28;27.08;;;;;;;;;;5001179;28;20029;-69
2023/07/28 06:38:18;;;;;;;57.38;26.70;;;;;;;;;;5020037;28;20051;-69
2023/07/28 06:40:44;;;;;;;66.93;26.90;;;;;;;;;;5001347;28;20114;-68
2023/07/28 06:43:11;;;;;;;54.50;25.42;;;;;;;;;;5006777;28;20037;-69
2023/07/28 06:45:38;;;;;;;52.60;25.60;;;;;;;;;;5001444;28;20554;-68
2023/07/28 06:48:04;;;;;;;53.72;24.27;;;;;;;;;;5020901;28;20052;-68
2023/07/28 06:50:32;;;;;;;51.80;24.23;;;;;;;;;;5018099;28;20113;-68
2023/07/28 06:52:58;;;;;;;53.30;26.00;;;;;;;;;;5016272;28;20120;-70
2023/07/28 06:55:25;;;;;;;50.67;22.33;;;;;;;;;;4996564;28;20117;-69
2023/07/28 06:57:52;;;;;;;50.70;23.85;;;;;;;;;;5020627;28;20030;-68
2023/07/28 07:00:18;;;;;;;46.58;23.52;;;;;;;;;;5004705;28;20048;-70
2023/07/28 07:02:45;;;;;;;42.10;23.40;;;;;;;;;;5020527;28;20479;-70
2023/07/28 07:05:11;;;;;;;47.30;22.73;;;;;;;;;;5017567;28;20509;-69
2023/07/28 07:07:39;;;;;;;45.33;22.48;;;;;;;;;;4992821;28;20120;-69
2023/07/28 07:10:06;;;;;;;47.63;22.70;;;;;;;;;;5000021;28;20068;-69
2023/07/28 07:12:32;;;;;;;42.88;22.27;;;;;;;;;;5016840;28;20044;-68
2023/07/28 07:14:58;;;;;;;43.83;21.42;;;;;;;;;;4998234;28;20041;-68
2023/07/28 07:17:24;;;;;;;45.63;21.60;;;;;;;;;;5017784;28;20142;-69
2023/07/28 07:19:50;;;;;;;38.03;20.50;;;;;;;;;;5017521;28;20136;-70
2023/07/28 07:22:17;;;;;;;37.35;20.23;;;;;;;;;;5017695;28;20478;-68
2023/07/28 07:24:43;;;;;;;33.05;20.05;;;;;;;;;;5015891;28;20041;-69
2023/07/28 07:27:10;;;;;;;32.38;19.75;;;;;;;;;;5018350;28;20025;-68
2023/07/28 07:29:38;;;;;;;41.50;19.23;;;;;;;;;;5019013;28;20079;-68
2023/07/28 07:32:05;;;;;;;36.58;19.63;;;;;;;;;;5018250;28;20677;-69
2023/07/28 07:34:31;;;;;;;32.38;17.20;;;;;;;;;;5018387;28;20589;-69
2023/07/28 07:36:57;;;;;;;26.40;15.95;;;;;;;;;;5019968;28;20033;-69
2023/07/28 07:39:23;;;;;;;20.67;12.43;;;;;;;;;;5016864;28;20037;-68
2023/07/28 07:41:49;;;;;;;21.13;12.27;;;;;;;;;;4999292;28;20025;-69
2023/07/28 07:44:15;;;;;;;18.88;10.98;;;;;;;;;;5022850;28;20056;-68
2023/07/28 07:46:41;;;;;;;15.05;9.93;;;;;;;;;;5022481;28;20037;-68
2023/07/28 07:49:07;;;;;;;17.23;9.48;;;;;;;;;;5003226;28;20114;-68
2023/07/28 07:51:35;;;;;;;15.73;8.77;;;;;;;;;;5023700;28;20395;-69
2023/07/28 07:54:01;;;;;;;13.65;7.97;;;;;;;;;;5019091;28;20041;-68
2023/07/28 07:56:27;;;;;;;14.00;9.50;;;;;;;;;;5020902;28;20076;-70
2023/07/28 07:58:54;;;;;;;11.93;8.45;;;;;;;;;;5022788;28;20025;-68
2023/07/28 08:01:20;;;;;;;17.38;9.82;;;;;;;;;;5020655;28;20406;-69
2023/07/28 08:03:47;;;;;;;17.73;10.00;;;;;;;;;;5020919;28;20614;-69
2023/07/28 08:06:13;;;;;;;19.05;10.18;;;;;;;;;;5024822;28;20045;-68
2023/07/28 08:08:40;;;;;;;15.80;10.23;;;;;;;;;;5023849;28;20033;-68
2023/07/28 08:11:07;;;;;;;16.05;10.63;;;;;;;;;;5018109;28;20073;-67
2023/07/28 08:13:33;;;;;;;15.60;11.70;;;;;;;;;;5015340;28;20503;-68
2023/07/28 08:15:59;;;;;;;15.88;10.80;;;;;;;;;;5033464;28;20407;-68
2023/07/28 08:18:25;;;;;;;20.92;12.02;;;;;;;;;;5027350;28;20029;-68
2023/07/28 08:20:51;;;;;;;20.05;12.57;;;;;;;;;;5029067;28;20037;-70
2023/07/28 08:23:18;;;;;;;20.80;12.13;;;;;;;;;;5030068;28;20794;-68
2023/07/28 08:25:44;;;;;;;21.63;12.07;;;;;;;;;;5028433;28;20056;-67
2023/07/28 08:28:10;;;;;;;18.85;12.18;;;;;;;;;;5028906;28;20030;-70
2023/07/28 08:30:36;;;;;;;21.83;11.18;;;;;;;;;;5023044;28;20422;-67
2023/07/28 08:33:03;;;;;;;21.38;10.80;;;;;;;;;;5029432;28;20052;-67
2023/07/28 08:35:29;;;;;;;19.85;11.30;;;;;;;;;;5025141;28;20034;-68
2023/07/28 08:37:55;;;;;;;16.15;10.55;;;;;;;;;;5025462;28;20067;-69
2023/07/28 08:40:22;;;;;;;17.65;11.57;;;;;;;;;;5031239;28;20045;-68
2023/07/28 08:42:49;;;;;;;17.67;11.07;;;;;;;;;;5025715;28;20048;-68
2023/07/28 08:45:15;;;;;;;20.73;12.15;;;;;;;;;;5021849;28;20057;-68
2023/07/28 08:47:41;;;;;;;15.98;11.65;;;;;;;;;;5021923;28;20521;-69
2023/07/28 08:50:08;;;;;;;18.98;11.55;;;;;;;;;;5027206;28;20562;-71
2023/07/28 08:52:34;;;;;;;16.30;12.27;;;;;;;;;;5024922;28;20033;-69
2023/07/28 08:55:00;;;;;;;14.32;10.85;;;;;;;;;;5032216;28;20040;-69
2023/07/28 08:57:27;;;;;;;19.42;11.40;;;;;;;;;;5029411;28;20144;-70
2023/07/28 08:59:53;;;;;;;23.08;12.13;;;;;;;;;;5030019;28;20364;-69
2023/07/28 09:02:20;;;;;;;15.68;11.20;;;;;;;;;;5008535;28;20044;-69
2023/07/28 09:04:47;;;;;;;18.23;10.82;;;;;;;;;;5028909;28;20029;-68
2023/07/28 09:07:13;;;;;;;13.85;11.43;;;;;;;;;;5027341;28;20502;-68
2023/07/28 09:09:43;;;;;;;14.27;9.45;;;;;;;;;;5030353;28;20077;-67
2023/07/28 09:12:10;;;;;;;16.65;11.77;;;;;;;;;;5022423;28;20140;-68
2023/07/28 09:14:37;;;;;;;14.20;10.35;;;;;;;;;;5021905;28;20033;-68
2023/07/28 09:17:07;;;;;;;14.70;10.05;;;;;;;;;;5010884;28;20104;-68
2023/07/28 09:19:33;;;;;;;18.98;10.43;;;;;;;;;;5029602;28;20069;-69
2023/07/28 09:22:00;;;;;;;14.70;10.50;;;;;;;;;;5027511;28;20022;-68
2023/07/28 09:24:33;;;;;;;15.43;8.90;;;;;;;;;;5028191;28;20056;-68
2023/07/28 09:26:59;;;;;;;15.82;9.07;;;;;;;;;;5029253;28;20033;-68
2023/07/28 09:29:27;;;;;;;15.20;9.35;;;;;;;;;;5028608;28;20041;-68
2023/07/28 09:31:54;;;;;;;14.18;7.93;;;;;;;;;;5029439;28;20040;-68
2023/07/28 09:34:29;;;;;;;13.93;7.22;;;;;;;;;;5012195;28;20041;-68
2023/07/28 09:36:56;;;;;;;16.15;7.47;;;;;;;;;;5029627;28;20116;-71
2023/07/28 09:39:23;;;;;;;11.77;6.88;;;;;;;;;;5024062;28;20033;-69
2023/07/28 09:41:49;;;;;;;16.67;6.93;;;;;;;;;;5021019;28;20124;-69
2023/07/28 09:44:16;;;;;;;11.15;6.50;;;;;;;;;;5031135;28;20060;-69
2023/07/28 09:47:02;;;;;;;10.60;6.30;;;;;;;;;;5031224;28;20087;-69
2023/07/28 09:49:29;;;;;;;12.77;5.90;;;;;;;;;;5029019;28;20079;-69
2023/07/28 09:51:58;;;;;;;10.25;6.10;;;;;;;;;;5031058;28;20022;-69
2023/07/28 09:54:27;;;;;;;17.80;6.63;;;;;;;;;;5029372;28;20032;-68
2023/07/28 09:56:57;;;;;;;8.60;6.10;;;;;;;;;;5027144;28;20109;-69
2023/07/28 09:59:29;;;;;;;9.07;6.57;;;;;;;;;;5023697;28;20022;-69
2023/07/28 10:01:56;;;;;;;11.65;6.28;;;;;;;;;;5025403;28;20022;-68
2023/07/28 10:04:22;;;;;;;14.68;6.63;;;;;;;;;;5009733;28;20033;-69
2023/07/28 10:06:48;;;;;;;13.25;7.07;;;;;;;;;;5029183;28;20064;-69
2023/07/28 10:09:16;;;;;;;12.75;6.25;;;;;;;;;;5028022;28;20422;-69
2023/07/28 10:11:43;;;;;;;10.57;6.30;;;;;;;;;;5007627;28;20129;-70
2023/07/28 10:14:13;;;;;;;10.48;5.88;;;;;;;;;;5029980;28;20036;-70
2023/07/28 10:16:39;;;;;;;10.80;4.97;;;;;;;;;;5029683;28;20099;-70
2023/07/28 10:19:06;;;;;;;18.00;6.40;;;;;;;;;;5029811;28;20425;-68
2023/07/28 10:21:32;;;;;;;15.20;5.00;;;;;;;;;;5022480;28;20045;-69
2023/07/28 10:23:59;;;;;;;11.23;5.00;;;;;;;;;;5025517;28;20103;-69
2023/07/28 10:26:32;;;;;;;13.02;5.38;;;;;;;;;;5014911;28;20030;-69
2023/07/28 10:29:08;;;;;;;14.30;6.43;;;;;;;;;;5026058;28;20064;-68
2023/07/28 10:31:34;;;;;;;8.70;5.13;;;;;;;;;;5028222;28;20037;-68
2023/07/28 10:34:00;;;;;;;10.90;4.85;;;;;;;;;;5020853;28;20040;-69
2023/07/28 10:36:26;;;;;;;12.23;5.63;;;;;;;;;;5017847;28;20034;-69
2023/07/28 10:39:12;;;;;;;10.02;5.38;;;;;;;;;;5025587;28;20167;-69
2023/07/28 10:41:38;;;;;;;10.50;6.30;;;;;;;;;;5023266;28;20427;-69
2023/07/28 10:44:05;;;;;;;11.35;5.90;;;;;;;;;;5023363;28;20061;-68
2023/07/28 10:46:37;;;;;;;15.15;6.18;;;;;;;;;;5017729;28;20027;-68
2023/07/28 10:49:05;;;;;;;13.90;7.18;;;;;;;;;;5024334;28;20033;-69
2023/07/28 10:51:33;;;;;;;10.70;5.93;;;;;;;;;;5021281;28;20418;-69
2023/07/28 10:54:00;;;;;;;9.68;5.25;;;;;;;;;;5021206;28;20029;-68
2023/07/28 10:56:26;;;;;;;11.55;5.32;;;;;;;;;;4999852;28;20041;-68
2023/07/28 10:59:06;;;;;;;8.63;4.93;;;;;;;;;;5025248;28;20045;-70
2023/07/28 11:01:34;;;;;;;7.75;4.70;;;;;;;;;;5019908;28;20449;-68
2023/07/28 11:04:11;;;;;;;8.70;4.80;;;;;;;;;;5021327;28;20041;-68
2023/07/28 11:06:39;;;;;;;9.68;4.60;;;;;;;;;;5020359;28;20316;-70
2023/07/28 11:09:06;;;;;;;8.57;4.43;;;;;;;;;;5021427;28;20470;-70
2023/07/28 11:11:32;;;;;;;10.18;4.55;;;;;;;;;;5022140;28;20490;-70
2023/07/28 11:13:59;;;;;;;11.40;5.00;;;;;;;;;;5020212;28;20091;-69
2023/07/28 11:16:25;;;;;;;10.32;5.50;;;;;;;;;;5022081;28;20038;-68
2023/07/28 11:18:55;;;;;;;11.07;6.28;;;;;;;;;;5024975;28;20357;-68
2023/07/28 11:21:22;;;;;;;15.30;5.87;;;;;;;;;;5025397;28;20021;-70
2023/07/28 11:23:48;;;;;;;13.05;5.68;;;;;;;;;;5020575;28;20042;-68
2023/07/28 11:26:17;;;;;;;12.82;6.25;;;;;;;;;;5019991;28;20041;-68
2023/07/28 11:28:44;;;;;;;13.35;6.10;;;;;;;;;;5021000;28;20045;-68
2023/07/28 11:31:13;;;;;;;14.40;6.88;;;;;;;;;;5022498;28;20037;-69
2023/07/28 11:33:39;;;;;;;10.13;5.88;;;;;;;;;;5026282;28;20037;-69
2023/07/28 11:36:06;;;;;;;12.00;5.35;;;;;;;;;;5017995;28;20033;-69
2023/07/28 11:38:35;;;;;;;12.55;5.95;;;;;;;;;;5023842;28;20033;-70
2023/07/28 11:41:06;;;;;;;10.13;5.43;;;;;;;;;;5018776;28;20091;-71
2023/07/28 11:43:33;;;;;;;12.10;6.10;;;;;;;;;;4999400;28;20302;-69
2023/07/28 11:45:59;;;;;;;10.63;5.28;;;;;;;;;;5024793;28;20042;-69
2023/07/28 11:48:30;;;;;;;13.90;5.80;;;;;;;;;;5012322;28;20053;-69
2023/07/28 11:50:56;;;;;;;11.38;5.30;;;;;;;;;;5029974;28;20029;-69
2023/07/28 11:53:23;;;;;;;12.27;5.50;;;;;;;;;;5032659;28;20120;-69
2023/07/28 11:55:49;;;;;;;10.20;5.18;;;;;;;;;;5031087;28;20406;-70
2023/07/28 11:58:15;;;;;;;9.77;4.78;;;;;;;;;;5015843;28;20049;-69
2023/07/28 12:00:42;;;;;;;11.98;4.60;;;;;;;;;;5027819;28;20053;-69
2023/07/28 12:03:09;;;;;;;13.90;4.80;;;;;;;;;;5013084;28;20110;-69
2023/07/28 12:05:36;;;;;;;9.93;4.50;;;;;;;;;;5019461;28;20040;-70
2023/07/28 12:08:07;;;;;;;11.57;4.68;;;;;;;;;;5028810;28;20048;-68
2023/07/28 12:10:33;;;;;;;6.47;3.67;;;;;;;;;;5025228;28;20051;-68
2023/07/28 12:13:06;;;;;;;8.63;4.30;;;;;;;;;;5026188;28;20061;-68
2023/07/28 12:15:34;;;;;;;13.25;4.90;;;;;;;;;;5028094;28;20041;-69
2023/07/28 12:18:08;;;;;;;9.38;4.00;;;;;;;;;;5011941;28;20033;-68
2023/07/28 12:20:35;;;;;;;7.30;4.53;;;;;;;;;;5025741;28;20072;-69
2023/07/28 12:23:02;;;;;;;8.80;4.43;;;;;;;;;;5005789;28;20044;-68
2023/07/28 12:25:29;;;;;;;8.55;3.97;;;;;;;;;;5026341;28;20116;-68
2023/07/28 12:27:55;;;;;;;11.55;4.88;;;;;;;;;;5023449;28;20486;-69
2023/07/28 12:30:21;;;;;;;10.35;4.47;;;;;;;;;;5028564;28;20021;-69
2023/07/28 12:32:48;;;;;;;8.15;4.43;;;;;;;;;;5021189;28;20096;-68
2023/07/28 12:35:14;;;;;;;11.73;4.20;;;;;;;;;;5025465;28;20055;-69
2023/07/28 12:37:41;;;;;;;6.72;4.13;;;;;;;;;;5031870;28;20092;-69
2023/07/28 12:40:08;;;;;;;8.20;3.90;;;;;;;;;;5024444;28;20025;-69
2023/07/28 12:42:34;;;;;;;8.20;3.65;;;;;;;;;;5024351;28;20240;-69
2023/07/28 12:45:00;;;;;;;8.55;3.67;;;;;;;;;;5021911;28;20107;-70
2023/07/28 12:47:26;;;;;;;7.13;3.97;;;;;;;;;;5025196;28;20522;-69
2023/07/28 12:49:53;;;;;;;6.80;3.90;;;;;;;;;;5030027;28;20083;-70
2023/07/28 12:52:20;;;;;;;10.68;3.65;;;;;;;;;;5008420;28;20025;-72
2023/07/28 12:54:47;;;;;;;7.82;3.85;;;;;;;;;;5024917;28;20751;-69
2023/07/28 12:57:13;;;;;;;5.07;3.20;;;;;;;;;;5025137;28;20100;-69
2023/07/28 12:59:39;;;;;;;7.40;3.40;;;;;;;;;;5024575;28;20037;-70
2023/07/28 13:02:06;;;;;;;7.03;3.03;;;;;;;;;;5019264;28;20396;-70
2023/07/28 13:04:32;;;;;;;6.80;3.78;;;;;;;;;;5023523;28;20045;-70
2023/07/28 13:06:58;;;;;;;8.88;3.60;;;;;;;;;;5025946;28;20033;-70
2023/07/28 13:09:25;;;;;;;5.63;3.30;;;;;;;;;;5023682;28;20033;-69
2023/07/28 13:11:51;;;;;;;7.35;3.55;;;;;;;;;;5022689;28;20041;-70
2023/07/28 13:14:17;;;;;;;12.98;4.70;;;;;;;;;;5026540;28;20033;-70
2023/07/28 13:16:44;;;;;;;10.77;5.50;;;;;;;;;;5024476;28;20017;-71
2023/07/28 13:19:10;;;;;;;10.63;5.63;;;;;;;;;;5022547;28;20029;-71
2023/07/28 13:21:36;;;;;;;13.23;5.53;;;;;;;;;;5022190;28;20402;-71
2023/07/28 13:24:03;;;;;;;12.02;5.40;;;;;;;;;;5023431;28;20425;-71
2023/07/28 13:26:29;;;;;;;9.82;5.72;;;;;;;;;;5027507;28;20033;-69
2023/07/28 13:28:58;;;;;;;8.88;5.47;;;;;;;;;;5025209;28;20041;-69
2023/07/28 13:31:24;;;;;;;10.70;6.40;;;;;;;;;;5008358;28;20037;-69
2023/07/28 13:33:50;;;;;;;12.05;5.72;;;;;;;;;;5021201;28;20124;-70
2023/07/28 13:36:16;;;;;;;9.75;4.90;;;;;;;;;;5027767;28;20545;-68
2023/07/28 13:38:42;;;;;;;9.23;4.50;;;;;;;;;;5031462;28;20116;-68
2023/07/28 13:41:08;;;;;;;7.88;4.40;;;;;;;;;;5031252;28;20129;-69
2023/07/28 13:43:36;;;;;;;8.55;4.30;;;;;;;;;;5030040;28;20368;-69
2023/07/28 13:46:04;;;;;;;9.30;4.75;;;;;;;;;;5030970;28;20499;-68
2023/07/28 13:48:31;;;;;;;9.73;5.22;;;;;;;;;;5031204;28;20423;-70
2023/07/28 13:50:57;;;;;;;8.40;5.05;;;;;;;;;;5030018;28;20356;-69
2023/07/28 13:53:23;;;;;;;7.40;4.68;;;;;;;;;;5029101;28;20041;-69
2023/07/28 13:55:50;;;;;;;9.35;5.63;;;;;;;;;;5029051;28;20033;-69
2023/07/28 13:58:16;;;;;;;11.88;5.78;;;;;;;;;;5030917;28;20052;-69
2023/07/28 14:00:42;;;;;;;11.05;5.55;;;;;;;;;;5030421;28;20030;-69
2023/07/28 14:03:09;;;;;;;12.68;5.95;;;;;;;;;;5030563;28;20037;-70
2023/07/28 14:05:35;;;;;;;10.02;6.47;;;;;;;;;;5030478;28;20040;-70
2023/07/28 14:08:02;;;;;;;11.95;5.72;;;;;;;;;;5030352;28;20034;-70
2023/07/28 14:10:29;;;;;;;11.07;6.10;;;;;;;;;;5030498;28;20037;-68
2023/07/28 14:12:55;;;;;;;11.38;7.13;;;;;;;;;;5026471;28;20034;-69
2023/07/28 14:15:21;;;;;;;11.50;6.25;;;;;;;;;;5026653;28;20120;-69
2023/07/28 14:17:47;;;;;;;11.23;7.63;;;;;;;;;;4993609;28;20044;-69
2023/07/28 14:20:13;;;;;;;11.77;6.68;;;;;;;;;;5029733;28;20048;-69
2023/07/28 14:22:40;;;;;;;11.10;6.95;;;;;;;;;;4998283;28;20038;-69
2023/07/28 14:25:06;;;;;;;14.60;7.53;;;;;;;;;;5011076;28;20113;-69